sensor_id;sensor_type;location;lat;lon;timestamp;P1;durP1;ratioP1;P2;durP2;ratioP2
76758;SDS011;65701;45.588;5.186;2023-04-06T05:06:17;17.75;;;17.75;;
76758;SDS011;65701;45.588;5.186;2023-04-06T05:08:44;22.00;;;17.75;;
76758;SDS011;65701;45.588;5.186;2023-04-06T05:11:09;20.00;;;18.50;;
76758;SDS011;65701;45.588;5.186;2023-04-06T05:13:35;15.75;;;15.75;;
76758;SDS011;65701;45.588;5.186;2023-04-06T05:16:01;26.00;;;20.75;;
76758;SDS011;65701;45.588;5.186;2023-04-06T05:18:28;19.00;;;16.50;;
76758;SDS011;65701;45.588;5.186;2023-04-06T05:20:54;13.50;;;13.50;;
76758;SDS011;65701;45.588;5.186;2023-04-06T05:23:20;18.00;;;18.00;;
76758;SDS011;65701;45.588;5.186;2023-04-06T05:25:45;15.00;;;15.00;;
76758;SDS011;65701;45.588;5.186;2023-04-06T05:28:11;17.50;;;16.00;;
76758;SDS011;65701;45.588;5.186;2023-04-06T05:30:39;22.00;;;17.75;;
76758;SDS011;65701;45.588;5.186;2023-04-06T05:33:05;21.50;;;20.50;;
76758;SDS011;65701;45.588;5.186;2023-04-06T05:35:30;26.75;;;25.50;;
76758;SDS011;65701;45.588;5.186;2023-04-06T05:37:56;29.25;;;26.75;;
76758;SDS011;65701;45.588;5.186;2023-04-06T05:40:21;22.50;;;22.50;;
76758;SDS011;65701;45.588;5.186;2023-04-06T05:42:47;23.50;;;22.00;;
76758;SDS011;65701;45.588;5.186;2023-04-06T05:45:14;18.75;;;18.75;;
76758;SDS011;65701;45.588;5.186;2023-04-06T05:47:42;23.50;;;20.50;;
76758;SDS011;65701;45.588;5.186;2023-04-06T05:50:11;28.25;;;23.00;;
76758;SDS011;65701;45.588;5.186;2023-04-06T05:52:37;25.25;;;24.75;;
76758;SDS011;65701;45.588;5.186;2023-04-06T05:55:03;18.25;;;18.00;;
76758;SDS011;65701;45.588;5.186;2023-04-06T05:57:29;27.50;;;24.00;;
76758;SDS011;65701;45.588;5.186;2023-04-06T05:59:55;21.75;;;20.25;;
76758;SDS011;65701;45.588;5.186;2023-04-06T06:02:21;24.50;;;22.50;;
76758;SDS011;65701;45.588;5.186;2023-04-06T06:04:47;27.50;;;23.25;;
76758;SDS011;65701;45.588;5.186;2023-04-06T06:07:13;29.25;;;26.00;;
76758;SDS011;65701;45.588;5.186;2023-04-06T06:09:39;24.75;;;23.00;;
76758;SDS011;65701;45.588;5.186;2023-04-06T06:12:05;31.50;;;30.50;;
76758;SDS011;65701;45.588;5.186;2023-04-06T06:14:31;29.50;;;27.00;;
76758;SDS011;65701;45.588;5.186;2023-04-06T06:16:56;32.00;;;26.75;;
76758;SDS011;65701;45.588;5.186;2023-04-06T06:19:22;33.50;;;31.75;;
76758;SDS011;65701;45.588;5.186;2023-04-06T06:21:47;28.50;;;27.00;;
76758;SDS011;65701;45.588;5.186;2023-04-06T06:24:13;32.00;;;29.75;;
76758;SDS011;65701;45.588;5.186;2023-04-06T06:26:38;29.25;;;25.25;;
76758;SDS011;65701;45.588;5.186;2023-04-06T06:29:04;29.75;;;24.50;;
76758;SDS011;65701;45.588;5.186;2023-04-06T06:31:31;31.25;;;28.00;;
76758;SDS011;65701;45.588;5.186;2023-04-06T06:33:57;30.25;;;26.50;;
76758;SDS011;65701;45.588;5.186;2023-04-06T06:36:22;29.00;;;27.00;;
76758;SDS011;65701;45.588;5.186;2023-04-06T06:38:48;32.00;;;29.25;;
76758;SDS011;65701;45.588;5.186;2023-04-06T06:41:13;18.25;;;17.75;;
76758;SDS011;65701;45.588;5.186;2023-04-06T06:43:39;28.00;;;25.50;;
76758;SDS011;65701;45.588;5.186;2023-04-06T06:46:05;27.00;;;24.00;;
76758;SDS011;65701;45.588;5.186;2023-04-06T06:48:31;25.50;;;23.00;;
76758;SDS011;65701;45.588;5.186;2023-04-06T06:50:56;28.75;;;25.25;;
76758;SDS011;65701;45.588;5.186;2023-04-06T06:53:22;26.25;;;20.25;;
76758;SDS011;65701;45.588;5.186;2023-04-06T06:55:49;21.75;;;20.75;;
76758;SDS011;65701;45.588;5.186;2023-04-06T06:58:14;26.00;;;23.50;;
76758;SDS011;65701;45.588;5.186;2023-04-06T07:00:40;26.50;;;24.50;;
76758;SDS011;65701;45.588;5.186;2023-04-06T07:03:06;27.25;;;26.00;;
76758;SDS011;65701;45.588;5.186;2023-04-06T07:05:31;24.25;;;21.50;;
76758;SDS011;65701;45.588;5.186;2023-04-06T07:07:57;26.25;;;23.75;;
76758;SDS011;65701;45.588;5.186;2023-04-06T07:10:23;26.75;;;26.75;;
76758;SDS011;65701;45.588;5.186;2023-04-06T07:12:48;26.00;;;23.25;;
76758;SDS011;65701;45.588;5.186;2023-04-06T07:15:14;24.00;;;22.00;;
76758;SDS011;65701;45.588;5.186;2023-04-06T07:17:39;20.75;;;20.50;;
76758;SDS011;65701;45.588;5.186;2023-04-06T07:20:10;23.00;;;21.25;;
76758;SDS011;65701;45.588;5.186;2023-04-06T07:22:37;24.75;;;18.00;;
76758;SDS011;65701;45.588;5.186;2023-04-06T07:25:03;21.50;;;18.75;;
76758;SDS011;65701;45.588;5.186;2023-04-06T07:27:29;29.75;;;24.50;;
76758;SDS011;65701;45.588;5.186;2023-04-06T07:29:54;22.25;;;18.00;;
76758;SDS011;65701;45.588;5.186;2023-04-06T07:32:20;22.75;;;19.50;;
76758;SDS011;65701;45.588;5.186;2023-04-06T07:34:46;18.75;;;13.50;;
76758;SDS011;65701;45.588;5.186;2023-04-06T07:37:11;21.75;;;20.00;;
76758;SDS011;65701;45.588;5.186;2023-04-06T07:39:37;17.00;;;15.50;;
76758;SDS011;65701;45.588;5.186;2023-04-06T07:42:03;16.75;;;16.00;;
76758;SDS011;65701;45.588;5.186;2023-04-06T07:44:28;20.25;;;20.25;;
76758;SDS011;65701;45.588;5.186;2023-04-06T07:46:54;21.25;;;19.25;;
76758;SDS011;65701;45.588;5.186;2023-04-06T07:49:19;19.00;;;16.75;;
76758;SDS011;65701;45.588;5.186;2023-04-06T07:51:46;17.50;;;17.50;;
76758;SDS011;65701;45.588;5.186;2023-04-06T07:54:11;17.75;;;11.75;;
76758;SDS011;65701;45.588;5.186;2023-04-06T07:56:37;20.75;;;19.50;;
76758;SDS011;65701;45.588;5.186;2023-04-06T07:59:02;18.00;;;17.00;;
76758;SDS011;65701;45.588;5.186;2023-04-06T08:01:28;17.75;;;15.75;;
76758;SDS011;65701;45.588;5.186;2023-04-06T08:03:55;19.75;;;17.00;;
76758;SDS011;65701;45.588;5.186;2023-04-06T08:06:21;22.75;;;21.00;;
76758;SDS011;65701;45.588;5.186;2023-04-06T08:08:47;18.50;;;17.00;;
76758;SDS011;65701;45.588;5.186;2023-04-06T08:11:12;13.00;;;12.25;;
76758;SDS011;65701;45.588;5.186;2023-04-06T08:13:38;18.50;;;16.25;;
76758;SDS011;65701;45.588;5.186;2023-04-06T08:16:04;15.25;;;14.00;;
76758;SDS011;65701;45.588;5.186;2023-04-06T08:18:29;17.00;;;17.00;;
76758;SDS011;65701;45.588;5.186;2023-04-06T08:20:55;16.50;;;16.50;;
76758;SDS011;65701;45.588;5.186;2023-04-06T08:23:22;18.75;;;17.75;;
76758;SDS011;65701;45.588;5.186;2023-04-06T08:25:47;14.25;;;14.25;;
76758;SDS011;65701;45.588;5.186;2023-04-06T08:28:13;17.50;;;17.50;;
76758;SDS011;65701;45.588;5.186;2023-04-06T08:30:42;19.25;;;16.50;;
76758;SDS011;65701;45.588;5.186;2023-04-06T08:33:08;24.50;;;19.00;;
76758;SDS011;65701;45.588;5.186;2023-04-06T08:35:33;20.75;;;19.75;;
76758;SDS011;65701;45.588;5.186;2023-04-06T08:37:59;26.75;;;22.50;;
76758;SDS011;65701;45.588;5.186;2023-04-06T08:40:24;16.50;;;16.50;;
76758;SDS011;65701;45.588;5.186;2023-04-06T08:42:52;19.75;;;17.00;;
76758;SDS011;65701;45.588;5.186;2023-04-06T08:45:20;21.25;;;18.75;;
76758;SDS011;65701;45.588;5.186;2023-04-06T08:47:55;12.75;;;12.75;;
76758;SDS011;65701;45.588;5.186;2023-04-06T08:50:24;16.00;;;15.50;;
76758;SDS011;65701;45.588;5.186;2023-04-06T08:52:50;23.00;;;19.75;;
76758;SDS011;65701;45.588;5.186;2023-04-06T08:55:15;25.25;;;22.00;;
76758;SDS011;65701;45.588;5.186;2023-04-06T08:57:41;21.75;;;20.00;;
76758;SDS011;65701;45.588;5.186;2023-04-06T09:00:08;19.50;;;16.50;;
76758;SDS011;65701;45.588;5.186;2023-04-06T09:02:37;18.00;;;17.75;;
76758;SDS011;65701;45.588;5.186;2023-04-06T09:05:04;9.25;;;8.75;;
76758;SDS011;65701;45.588;5.186;2023-04-06T09:07:29;21.00;;;20.25;;
76758;SDS011;65701;45.588;5.186;2023-04-06T09:09:55;14.75;;;12.25;;
76758;SDS011;65701;45.588;5.186;2023-04-06T09:12:22;17.00;;;17.00;;
76758;SDS011;65701;45.588;5.186;2023-04-06T09:14:47;16.25;;;14.75;;
76758;SDS011;65701;45.588;5.186;2023-04-06T09:17:19;11.25;;;11.25;;
76758;SDS011;65701;45.588;5.186;2023-04-06T09:19:49;16.75;;;15.25;;
76758;SDS011;65701;45.588;5.186;2023-04-06T09:22:15;15.00;;;12.75;;
76758;SDS011;65701;45.588;5.186;2023-04-06T09:27:14;12.50;;;11.50;;
76758;SDS011;65701;45.588;5.186;2023-04-06T09:29:40;17.50;;;14.75;;
76758;SDS011;65701;45.588;5.186;2023-04-06T09:32:07;18.25;;;18.25;;
76758;SDS011;65701;45.588;5.186;2023-04-06T09:34:37;12.25;;;10.00;;
76758;SDS011;65701;45.588;5.186;2023-04-06T09:37:13;11.75;;;11.75;;
76758;SDS011;65701;45.588;5.186;2023-04-06T09:39:39;12.00;;;12.00;;
76758;SDS011;65701;45.588;5.186;2023-04-06T09:42:05;11.75;;;11.75;;
76758;SDS011;65701;45.588;5.186;2023-04-06T09:44:31;11.25;;;10.50;;
76758;SDS011;65701;45.588;5.186;2023-04-06T09:46:57;12.50;;;11.00;;
76758;SDS011;65701;45.588;5.186;2023-04-06T09:49:22;7.25;;;7.25;;
76758;SDS011;65701;45.588;5.186;2023-04-06T09:51:55;8.75;;;8.00;;
76758;SDS011;65701;45.588;5.186;2023-04-06T09:54:28;9.50;;;9.50;;
76758;SDS011;65701;45.588;5.186;2023-04-06T09:57:07;7.50;;;7.50;;
76758;SDS011;65701;45.588;5.186;2023-04-06T10:07:48;7.75;;;7.00;;
76758;SDS011;65701;45.588;5.186;2023-04-06T10:10:16;11.25;;;10.00;;
76758;SDS011;65701;45.588;5.186;2023-04-06T10:12:41;10.50;;;9.00;;
76758;SDS011;65701;45.588;5.186;2023-04-06T10:15:08;8.50;;;7.00;;
76758;SDS011;65701;45.588;5.186;2023-04-06T10:17:34;10.00;;;8.50;;
76758;SDS011;65701;45.588;5.186;2023-04-06T10:20:10;9.25;;;9.25;;
76758;SDS011;65701;45.588;5.186;2023-04-06T10:22:53;8.75;;;8.75;;
76758;SDS011;65701;45.588;5.186;2023-04-06T10:25:30;8.75;;;8.50;;
76758;SDS011;65701;45.588;5.186;2023-04-06T10:28:15;8.25;;;6.00;;
76758;SDS011;65701;45.588;5.186;2023-04-06T10:30:44;8.00;;;7.75;;
76758;SDS011;65701;45.588;5.186;2023-04-06T10:35:43;10.25;;;8.25;;
76758;SDS011;65701;45.588;5.186;2023-04-06T10:38:09;10.50;;;10.50;;
76758;SDS011;65701;45.588;5.186;2023-04-06T10:40:37;7.75;;;7.75;;
76758;SDS011;65701;45.588;5.186;2023-04-06T10:43:10;10.00;;;8.75;;
76758;SDS011;65701;45.588;5.186;2023-04-06T10:45:39;9.50;;;9.50;;
76758;SDS011;65701;45.588;5.186;2023-04-06T10:48:12;9.75;;;8.50;;
76758;SDS011;65701;45.588;5.186;2023-04-06T10:50:40;10.50;;;9.00;;
76758;SDS011;65701;45.588;5.186;2023-04-06T10:53:07;9.50;;;9.50;;
76758;SDS011;65701;45.588;5.186;2023-04-06T10:55:33;9.00;;;9.00;;
76758;SDS011;65701;45.588;5.186;2023-04-06T10:57:59;7.75;;;7.75;;
76758;SDS011;65701;45.588;5.186;2023-04-06T11:00:25;10.25;;;9.50;;
76758;SDS011;65701;45.588;5.186;2023-04-06T11:02:51;10.00;;;8.00;;
76758;SDS011;65701;45.588;5.186;2023-04-06T11:05:23;9.75;;;8.25;;
76758;SDS011;65701;45.588;5.186;2023-04-06T11:07:50;9.00;;;9.00;;
76758;SDS011;65701;45.588;5.186;2023-04-06T11:10:20;8.00;;;8.00;;
76758;SDS011;65701;45.588;5.186;2023-04-06T11:12:52;7.25;;;7.25;;
76758;SDS011;65701;45.588;5.186;2023-04-06T11:15:19;9.50;;;7.00;;
76758;SDS011;65701;45.588;5.186;2023-04-06T11:17:45;12.25;;;9.50;;
76758;SDS011;65701;45.588;5.186;2023-04-06T11:20:11;10.00;;;10.00;;
76758;SDS011;65701;45.588;5.186;2023-04-06T11:22:47;9.25;;;6.75;;
76758;SDS011;65701;45.588;5.186;2023-04-06T11:25:16;6.75;;;6.75;;
76758;SDS011;65701;45.588;5.186;2023-04-06T11:27:42;10.00;;;8.25;;
76758;SDS011;65701;45.588;5.186;2023-04-06T11:30:08;8.75;;;7.25;;
76758;SDS011;65701;45.588;5.186;2023-04-06T11:32:41;7.75;;;7.75;;
76758;SDS011;65701;45.588;5.186;2023-04-06T11:35:19;5.25;;;4.00;;
76758;SDS011;65701;45.588;5.186;2023-04-06T11:37:45;13.00;;;8.00;;
76758;SDS011;65701;45.588;5.186;2023-04-06T11:40:11;8.50;;;8.00;;
76758;SDS011;65701;45.588;5.186;2023-04-06T11:42:38;14.75;;;10.50;;
76758;SDS011;65701;45.588;5.186;2023-04-06T11:45:03;12.00;;;10.00;;
76758;SDS011;65701;45.588;5.186;2023-04-06T11:47:33;10.25;;;9.50;;
76758;SDS011;65701;45.588;5.186;2023-04-06T11:50:12;9.75;;;7.00;;
76758;SDS011;65701;45.588;5.186;2023-04-06T11:52:41;7.75;;;7.75;;
76758;SDS011;65701;45.588;5.186;2023-04-06T11:55:16;7.00;;;5.00;;
76758;SDS011;65701;45.588;5.186;2023-04-06T11:57:43;9.00;;;8.75;;
76758;SDS011;65701;45.588;5.186;2023-04-06T12:00:10;10.00;;;9.00;;
76758;SDS011;65701;45.588;5.186;2023-04-06T12:02:37;6.00;;;6.00;;
76758;SDS011;65701;45.588;5.186;2023-04-06T12:05:03;10.00;;;6.75;;
76758;SDS011;65701;45.588;5.186;2023-04-06T12:07:30;10.00;;;8.25;;
76758;SDS011;65701;45.588;5.186;2023-04-06T12:09:56;7.75;;;7.75;;
76758;SDS011;65701;45.588;5.186;2023-04-06T12:12:23;6.50;;;5.75;;
76758;SDS011;65701;45.588;5.186;2023-04-06T12:14:48;10.00;;;7.00;;
76758;SDS011;65701;45.588;5.186;2023-04-06T12:17:14;5.25;;;4.75;;
76758;SDS011;65701;45.588;5.186;2023-04-06T12:19:39;6.00;;;6.00;;
76758;SDS011;65701;45.588;5.186;2023-04-06T12:22:05;6.00;;;6.00;;
76758;SDS011;65701;45.588;5.186;2023-04-06T12:24:31;4.00;;;4.00;;
76758;SDS011;65701;45.588;5.186;2023-04-06T12:26:56;5.50;;;5.50;;
76758;SDS011;65701;45.588;5.186;2023-04-06T12:29:23;9.00;;;9.00;;
76758;SDS011;65701;45.588;5.186;2023-04-06T12:31:49;8.00;;;7.50;;
76758;SDS011;65701;45.588;5.186;2023-04-06T12:34:16;8.75;;;8.25;;
76758;SDS011;65701;45.588;5.186;2023-04-06T12:36:41;9.25;;;9.25;;
76758;SDS011;65701;45.588;5.186;2023-04-06T12:39:07;7.75;;;7.75;;
76758;SDS011;65701;45.588;5.186;2023-04-06T12:41:33;8.25;;;7.00;;
76758;SDS011;65701;45.588;5.186;2023-04-06T12:43:59;10.50;;;8.75;;
76758;SDS011;65701;45.588;5.186;2023-04-06T12:46:25;10.75;;;8.50;;
76758;SDS011;65701;45.588;5.186;2023-04-06T12:48:51;11.25;;;7.25;;
76758;SDS011;65701;45.588;5.186;2023-04-06T12:51:18;7.00;;;7.00;;
76758;SDS011;65701;45.588;5.186;2023-04-06T12:53:44;6.75;;;6.75;;
76758;SDS011;65701;45.588;5.186;2023-04-06T12:56:14;7.00;;;7.00;;
76758;SDS011;65701;45.588;5.186;2023-04-06T12:58:41;11.25;;;8.25;;
76758;SDS011;65701;45.588;5.186;2023-04-06T13:01:07;7.75;;;7.25;;
76758;SDS011;65701;45.588;5.186;2023-04-06T13:03:33;6.75;;;6.25;;
76758;SDS011;65701;45.588;5.186;2023-04-06T13:05:59;6.00;;;6.00;;
76758;SDS011;65701;45.588;5.186;2023-04-06T13:08:25;5.25;;;5.25;;
76758;SDS011;65701;45.588;5.186;2023-04-06T13:10:52;8.50;;;5.00;;
76758;SDS011;65701;45.588;5.186;2023-04-06T13:13:28;6.00;;;6.00;;
76758;SDS011;65701;45.588;5.186;2023-04-06T13:15:58;6.25;;;5.50;;
76758;SDS011;65701;45.588;5.186;2023-04-06T13:18:28;4.50;;;4.25;;
76758;SDS011;65701;45.588;5.186;2023-04-06T13:20:55;8.75;;;6.75;;
76758;SDS011;65701;45.588;5.186;2023-04-06T13:23:24;9.50;;;7.75;;
76758;SDS011;65701;45.588;5.186;2023-04-06T13:25:57;9.25;;;6.00;;
76758;SDS011;65701;45.588;5.186;2023-04-06T13:28:24;6.25;;;5.75;;
76758;SDS011;65701;45.588;5.186;2023-04-06T13:30:51;6.50;;;6.00;;
76758;SDS011;65701;45.588;5.186;2023-04-06T13:33:16;10.00;;;8.75;;
76758;SDS011;65701;45.588;5.186;2023-04-06T13:35:44;6.00;;;5.00;;
76758;SDS011;65701;45.588;5.186;2023-04-06T13:38:10;5.25;;;5.25;;
76758;SDS011;65701;45.588;5.186;2023-04-06T13:40:38;4.50;;;4.50;;
76758;SDS011;65701;45.588;5.186;2023-04-06T13:43:05;7.50;;;6.25;;
76758;SDS011;65701;45.588;5.186;2023-04-06T13:45:30;5.25;;;5.00;;
76758;SDS011;65701;45.588;5.186;2023-04-06T13:47:56;5.00;;;4.00;;
76758;SDS011;65701;45.588;5.186;2023-04-06T13:50:21;4.25;;;4.00;;
76758;SDS011;65701;45.588;5.186;2023-04-06T13:52:47;3.75;;;3.75;;
76758;SDS011;65701;45.588;5.186;2023-04-06T13:55:12;2.00;;;2.00;;
76758;SDS011;65701;45.588;5.186;2023-04-06T13:57:38;3.50;;;3.50;;
76758;SDS011;65701;45.588;5.186;2023-04-06T14:00:03;4.00;;;4.00;;
76758;SDS011;65701;45.588;5.186;2023-04-06T14:02:30;2.00;;;2.00;;
76758;SDS011;65701;45.588;5.186;2023-04-06T14:04:55;5.25;;;3.25;;
76758;SDS011;65701;45.588;5.186;2023-04-06T14:07:21;2.25;;;2.25;;
76758;SDS011;65701;45.588;5.186;2023-04-06T14:09:47;3.25;;;3.25;;
76758;SDS011;65701;45.588;5.186;2023-04-06T14:12:12;3.50;;;2.50;;
76758;SDS011;65701;45.588;5.186;2023-04-06T14:14:38;4.25;;;4.25;;
76758;SDS011;65701;45.588;5.186;2023-04-06T14:17:03;2.50;;;2.50;;
76758;SDS011;65701;45.588;5.186;2023-04-06T14:19:29;4.75;;;3.75;;
76758;SDS011;65701;45.588;5.186;2023-04-06T14:21:55;5.00;;;4.00;;
76758;SDS011;65701;45.588;5.186;2023-04-06T14:24:21;5.00;;;5.00;;
76758;SDS011;65701;45.588;5.186;2023-04-06T14:26:47;2.75;;;2.75;;
76758;SDS011;65701;45.588;5.186;2023-04-06T14:29:13;3.50;;;3.50;;
76758;SDS011;65701;45.588;5.186;2023-04-06T14:31:38;3.75;;;3.75;;
76758;SDS011;65701;45.588;5.186;2023-04-06T14:34:04;2.25;;;2.25;;
76758;SDS011;65701;45.588;5.186;2023-04-06T14:36:32;4.25;;;2.50;;
76758;SDS011;65701;45.588;5.186;2023-04-06T14:39:03;4.00;;;4.00;;
76758;SDS011;65701;45.588;5.186;2023-04-06T14:41:31;2.50;;;2.50;;
76758;SDS011;65701;45.588;5.186;2023-04-06T14:43:57;4.75;;;4.00;;
76758;SDS011;65701;45.588;5.186;2023-04-06T14:46:23;3.25;;;3.25;;
76758;SDS011;65701;45.588;5.186;2023-04-06T14:48:49;3.00;;;3.00;;
76758;SDS011;65701;45.588;5.186;2023-04-06T14:51:14;4.00;;;4.00;;
76758;SDS011;65701;45.588;5.186;2023-04-06T14:53:40;1.00;;;1.00;;
76758;SDS011;65701;45.588;5.186;2023-04-06T14:56:06;2.00;;;1.25;;
76758;SDS011;65701;45.588;5.186;2023-04-06T14:58:31;6.25;;;5.00;;
76758;SDS011;65701;45.588;5.186;2023-04-06T15:00:57;4.00;;;3.00;;
76758;SDS011;65701;45.588;5.186;2023-04-06T15:03:24;2.25;;;2.25;;
76758;SDS011;65701;45.588;5.186;2023-04-06T15:05:50;5.25;;;4.00;;
76758;SDS011;65701;45.588;5.186;2023-04-06T15:08:17;3.00;;;2.25;;
76758;SDS011;65701;45.588;5.186;2023-04-06T15:10:45;3.00;;;2.75;;
76758;SDS011;65701;45.588;5.186;2023-04-06T15:13:14;5.00;;;5.00;;
76758;SDS011;65701;45.588;5.186;2023-04-06T15:15:40;4.25;;;4.25;;
76758;SDS011;65701;45.588;5.186;2023-04-06T15:18:07;2.25;;;2.25;;
76758;SDS011;65701;45.588;5.186;2023-04-06T15:20:32;3.25;;;3.25;;
76758;SDS011;65701;45.588;5.186;2023-04-06T15:22:58;3.75;;;3.00;;
76758;SDS011;65701;45.588;5.186;2023-04-06T15:25:23;2.00;;;2.00;;
76758;SDS011;65701;45.588;5.186;2023-04-06T15:27:50;4.00;;;2.00;;
76758;SDS011;65701;45.588;5.186;2023-04-06T15:30:18;4.00;;;4.00;;
76758;SDS011;65701;45.588;5.186;2023-04-06T15:35:40;3.25;;;1.75;;
76758;SDS011;65701;45.588;5.186;2023-04-06T15:38:09;4.50;;;3.00;;
76758;SDS011;65701;45.588;5.186;2023-04-06T15:40:45;2.75;;;2.75;;
76758;SDS011;65701;45.588;5.186;2023-04-06T15:43:12;5.75;;;5.75;;
76758;SDS011;65701;45.588;5.186;2023-04-06T15:45:38;3.00;;;3.00;;
76758;SDS011;65701;45.588;5.186;2023-04-06T15:48:04;4.25;;;3.00;;
76758;SDS011;65701;45.588;5.186;2023-04-06T15:50:30;5.25;;;4.00;;
76758;SDS011;65701;45.588;5.186;2023-04-06T15:52:57;3.00;;;3.00;;
76758;SDS011;65701;45.588;5.186;2023-04-06T15:55:23;3.00;;;3.00;;
76758;SDS011;65701;45.588;5.186;2023-04-06T15:57:48;4.75;;;3.25;;
76758;SDS011;65701;45.588;5.186;2023-04-06T16:00:14;4.00;;;3.00;;
76758;SDS011;65701;45.588;5.186;2023-04-06T16:02:40;3.00;;;3.00;;
76758;SDS011;65701;45.588;5.186;2023-04-06T16:05:06;4.00;;;4.00;;
76758;SDS011;65701;45.588;5.186;2023-04-06T16:07:34;2.50;;;2.50;;
76758;SDS011;65701;45.588;5.186;2023-04-06T16:09:59;2.00;;;2.00;;
76758;SDS011;65701;45.588;5.186;2023-04-06T16:12:26;1.75;;;1.75;;
76758;SDS011;65701;45.588;5.186;2023-04-06T16:14:52;3.00;;;3.00;;
76758;SDS011;65701;45.588;5.186;2023-04-06T16:17:19;2.00;;;2.00;;
76758;SDS011;65701;45.588;5.186;2023-04-06T16:19:45;4.00;;;2.00;;
76758;SDS011;65701;45.588;5.186;2023-04-06T16:22:12;4.00;;;4.00;;
76758;SDS011;65701;45.588;5.186;2023-04-06T16:24:39;2.75;;;2.75;;
76758;SDS011;65701;45.588;5.186;2023-04-06T16:27:06;3.50;;;3.50;;
76758;SDS011;65701;45.588;5.186;2023-04-06T16:29:38;3.50;;;3.50;;
76758;SDS011;65701;45.588;5.186;2023-04-06T16:32:04;3.00;;;3.00;;
76758;SDS011;65701;45.588;5.186;2023-04-06T16:34:32;3.25;;;3.25;;
76758;SDS011;65701;45.588;5.186;2023-04-06T16:36:59;4.00;;;4.00;;
76758;SDS011;65701;45.588;5.186;2023-04-06T16:39:25;3.00;;;3.00;;
76758;SDS011;65701;45.588;5.186;2023-04-06T16:41:51;2.00;;;2.00;;
76758;SDS011;65701;45.588;5.186;2023-04-06T16:44:17;3.00;;;2.00;;
76758;SDS011;65701;45.588;5.186;2023-04-06T16:46:42;3.00;;;3.00;;
76758;SDS011;65701;45.588;5.186;2023-04-06T16:49:08;3.00;;;3.00;;
76758;SDS011;65701;45.588;5.186;2023-04-06T16:51:36;3.00;;;3.00;;
76758;SDS011;65701;45.588;5.186;2023-04-06T16:54:04;5.00;;;2.25;;
76758;SDS011;65701;45.588;5.186;2023-04-06T16:56:30;4.00;;;2.00;;
76758;SDS011;65701;45.588;5.186;2023-04-06T16:58:56;4.00;;;4.00;;
76758;SDS011;65701;45.588;5.186;2023-04-06T17:01:25;3.00;;;3.00;;
76758;SDS011;65701;45.588;5.186;2023-04-06T17:03:54;3.00;;;3.00;;
76758;SDS011;65701;45.588;5.186;2023-04-06T17:06:30;2.00;;;2.00;;
76758;SDS011;65701;45.588;5.186;2023-04-06T17:08:56;3.00;;;3.00;;
76758;SDS011;65701;45.588;5.186;2023-04-06T17:11:23;2.25;;;2.25;;
76758;SDS011;65701;45.588;5.186;2023-04-06T17:13:49;2.75;;;2.75;;
76758;SDS011;65701;45.588;5.186;2023-04-06T17:16:14;3.25;;;3.25;;
76758;SDS011;65701;45.588;5.186;2023-04-06T17:18:42;3.00;;;3.00;;
76758;SDS011;65701;45.588;5.186;2023-04-06T17:21:08;3.00;;;2.75;;
76758;SDS011;65701;45.588;5.186;2023-04-06T17:23:38;4.75;;;3.50;;
76758;SDS011;65701;45.588;5.186;2023-04-06T17:26:04;3.00;;;3.00;;
76758;SDS011;65701;45.588;5.186;2023-04-06T17:28:31;3.50;;;3.50;;
76758;SDS011;65701;45.588;5.186;2023-04-06T17:30:57;4.00;;;2.75;;
76758;SDS011;65701;45.588;5.186;2023-04-06T17:33:24;5.00;;;4.25;;
76758;SDS011;65701;45.588;5.186;2023-04-06T17:35:51;8.00;;;6.50;;
76758;SDS011;65701;45.588;5.186;2023-04-06T17:38:18;5.00;;;5.00;;
76758;SDS011;65701;45.588;5.186;2023-04-06T17:40:44;4.50;;;4.50;;
76758;SDS011;65701;45.588;5.186;2023-04-06T17:43:10;2.25;;;2.25;;
76758;SDS011;65701;45.588;5.186;2023-04-06T17:45:36;2.00;;;2.00;;
76758;SDS011;65701;45.588;5.186;2023-04-06T17:48:02;2.00;;;2.00;;
76758;SDS011;65701;45.588;5.186;2023-04-06T17:50:27;3.00;;;3.00;;
76758;SDS011;65701;45.588;5.186;2023-04-06T17:52:53;2.00;;;2.00;;
76758;SDS011;65701;45.588;5.186;2023-04-06T17:55:19;4.50;;;3.00;;
76758;SDS011;65701;45.588;5.186;2023-04-06T17:57:46;3.25;;;3.25;;
76758;SDS011;65701;45.588;5.186;2023-04-06T18:00:12;8.50;;;7.00;;
76758;SDS011;65701;45.588;5.186;2023-04-06T18:02:40;4.50;;;4.50;;
76758;SDS011;65701;45.588;5.186;2023-04-06T18:05:06;6.50;;;6.50;;
76758;SDS011;65701;45.588;5.186;2023-04-06T18:07:32;4.25;;;4.25;;
76758;SDS011;65701;45.588;5.186;2023-04-06T18:10:00;7.00;;;5.00;;
76758;SDS011;65701;45.588;5.186;2023-04-06T18:12:26;4.00;;;4.00;;
76758;SDS011;65701;45.588;5.186;2023-04-06T18:14:52;6.50;;;4.25;;
76758;SDS011;65701;45.588;5.186;2023-04-06T18:17:18;4.75;;;4.75;;
76758;SDS011;65701;45.588;5.186;2023-04-06T18:19:46;1.00;;;1.00;;
76758;SDS011;65701;45.588;5.186;2023-04-06T18:22:12;6.00;;;6.00;;
76758;SDS011;65701;45.588;5.186;2023-04-06T18:24:38;9.00;;;7.00;;
76758;SDS011;65701;45.588;5.186;2023-04-06T18:27:08;47.75;;;39.25;;
76758;SDS011;65701;45.588;5.186;2023-04-06T18:29:43;47.75;;;40.75;;
76758;SDS011;65701;45.588;5.186;2023-04-06T18:32:16;6.00;;;6.00;;
76758;SDS011;65701;45.588;5.186;2023-04-06T18:34:43;5.00;;;5.00;;
76758;SDS011;65701;45.588;5.186;2023-04-06T18:37:12;8.75;;;8.75;;
76758;SDS011;65701;45.588;5.186;2023-04-06T18:39:41;5.75;;;5.50;;
76758;SDS011;65701;45.588;5.186;2023-04-06T18:42:08;6.50;;;6.50;;
76758;SDS011;65701;45.588;5.186;2023-04-06T18:44:35;7.25;;;7.00;;
76758;SDS011;65701;45.588;5.186;2023-04-06T18:47:01;4.50;;;4.00;;
76758;SDS011;65701;45.588;5.186;2023-04-06T18:49:27;4.00;;;3.75;;
76758;SDS011;65701;45.588;5.186;2023-04-06T18:51:53;3.00;;;3.00;;
76758;SDS011;65701;45.588;5.186;2023-04-06T18:54:22;4.25;;;4.25;;
76758;SDS011;65701;45.588;5.186;2023-04-06T18:56:47;3.25;;;3.25;;
76758;SDS011;65701;45.588;5.186;2023-04-06T18:59:14;5.00;;;4.00;;
76758;SDS011;65701;45.588;5.186;2023-04-06T19:01:41;4.00;;;4.00;;
76758;SDS011;65701;45.588;5.186;2023-04-06T19:04:11;6.50;;;5.75;;
76758;SDS011;65701;45.588;5.186;2023-04-06T19:06:37;6.50;;;6.00;;
76758;SDS011;65701;45.588;5.186;2023-04-06T19:09:02;7.00;;;7.00;;
76758;SDS011;65701;45.588;5.186;2023-04-06T19:11:29;7.25;;;6.75;;
76758;SDS011;65701;45.588;5.186;2023-04-06T19:13:56;9.00;;;8.50;;
76758;SDS011;65701;45.588;5.186;2023-04-06T19:16:22;11.00;;;9.50;;
76758;SDS011;65701;45.588;5.186;2023-04-06T19:18:51;12.75;;;10.00;;
76758;SDS011;65701;45.588;5.186;2023-04-06T19:23:44;21.00;;;18.75;;
76758;SDS011;65701;45.588;5.186;2023-04-06T19:26:11;24.50;;;20.75;;
76758;SDS011;65701;45.588;5.186;2023-04-06T19:28:37;24.75;;;24.00;;
76758;SDS011;65701;45.588;5.186;2023-04-06T19:31:04;15.00;;;10.25;;
76758;SDS011;65701;45.588;5.186;2023-04-06T19:33:32;12.50;;;9.50;;
76758;SDS011;65701;45.588;5.186;2023-04-06T19:36:00;15.00;;;10.25;;
76758;SDS011;65701;45.588;5.186;2023-04-06T19:38:28;9.75;;;6.75;;
76758;SDS011;65701;45.588;5.186;2023-04-06T19:40:53;12.25;;;9.00;;
76758;SDS011;65701;45.588;5.186;2023-04-06T19:43:19;14.00;;;11.50;;
76758;SDS011;65701;45.588;5.186;2023-04-06T19:45:45;24.50;;;21.00;;
76758;SDS011;65701;45.588;5.186;2023-04-06T19:48:12;22.75;;;18.50;;
76758;SDS011;65701;45.588;5.186;2023-04-06T19:50:38;18.00;;;15.75;;
76758;SDS011;65701;45.588;5.186;2023-04-06T19:53:03;15.00;;;12.75;;
76758;SDS011;65701;45.588;5.186;2023-04-06T19:55:31;11.50;;;9.50;;
76758;SDS011;65701;45.588;5.186;2023-04-06T19:58:01;6.50;;;6.00;;
76758;SDS011;65701;45.588;5.186;2023-04-06T20:00:28;5.00;;;5.00;;